CheckWX is a tool to help pilots better visualize weather data.  It is not intended as a substitute for an official pre-flight weather briefing.

14:40:08 UTC

KSUS TAF
Spirit of St Louis Airport
St Louis, Missouri, USA
KSUS 161349Z 1614/1712 VRB04KT P6SM VCSH SCT006 OVC020 TEMPO 1614/1616 6SM -SHRA BKN006 FM161800 VRB04KT P6SM VCSH BKN025 FM162000 VRB04KT P6SM VCSH BKN035 FM162300 VRB03KT P6SM SCT050

Jul-16@
14:00 UTC

Jul-16 @ 14:00 UTC

Jul-16@
18:00 UTC

Jul-16 @ 18:00 UTC

KSUS 161349Z 1614/1712 VRB04KT P6SM VCSH SCT006 OVC020
Wind
  • Variable at 4 KTS
Cloud Levels
  • Scattered at 600' AGL
  • Overcast at 2,000' AGL

Jul-16@
14:00 UTC

Jul-16 @ 14:00 UTC

Jul-16@
16:00 UTC

Jul-16 @ 16:00 UTC

TEMPO 1614/1616 6SM -SHRA BKN006

Temporary

Temporary Changes expected for less than half the time period

Conditions
Light Rain
Cloud Levels
  • Broken at 600' AGL

Jul-16@
18:00 UTC

Jul-16 @ 18:00 UTC

Jul-16@
20:00 UTC

Jul-16 @ 20:00 UTC

FM161800 VRB04KT P6SM VCSH BKN025

From

From Standard forecast or significant change

Wind
  • Variable at 4 KTS
Cloud Levels
  • Broken at 2,500' AGL

Jul-16@
20:00 UTC

Jul-16 @ 20:00 UTC

Jul-16@
23:00 UTC

Jul-16 @ 23:00 UTC

FM162000 VRB04KT P6SM VCSH BKN035

From

From Standard forecast or significant change

Wind
  • Variable at 4 KTS
Cloud Levels
  • Broken at 3,500' AGL

Jul-16@
23:00 UTC

Jul-16 @ 23:00 UTC

Jul-17@
12:00 UTC

Jul-17 @ 12:00 UTC

FM162300 VRB03KT P6SM SCT050

From

From Standard forecast or significant change

Wind
  • Variable at 3 KTS
Cloud Levels
  • Scattered at 5,000' AGL